createdAt,value
2019-04-07T00:00:51.955Z,44.23
2019-04-07T00:03:25.042Z,44.17
2019-04-07T00:05:57.817Z,44.13
2019-04-07T00:08:31.223Z,44.05
2019-04-07T00:11:04.520Z,44.00
2019-04-07T00:13:38.355Z,43.93
2019-04-07T00:16:11.190Z,43.89
2019-04-07T00:18:45.272Z,43.85
2019-04-07T00:21:18.020Z,43.83
2019-04-07T00:23:50.743Z,43.80
2019-04-07T00:26:23.823Z,43.78
2019-04-07T00:28:56.578Z,43.73
2019-04-07T00:31:28.982Z,43.68
2019-04-07T00:34:01.615Z,43.67
2019-04-07T00:36:34.211Z,43.67
2019-04-07T00:39:08.347Z,43.66
2019-04-07T00:41:41.026Z,43.63
2019-04-07T00:44:13.468Z,43.64
2019-04-07T00:46:46.032Z,43.59
2019-04-07T00:49:20.537Z,43.62
2019-04-07T00:51:54.491Z,43.63
2019-04-07T00:54:27.251Z,43.62
2019-04-07T00:56:59.857Z,43.61
2019-04-07T00:59:33.424Z,43.61
2019-04-07T01:02:06.917Z,43.60
2019-04-07T01:04:39.660Z,43.60
2019-04-07T01:07:12.257Z,43.63
2019-04-07T01:09:45.361Z,43.63
2019-04-07T01:12:18.262Z,43.61
2019-04-07T01:14:50.662Z,43.59
2019-04-07T01:17:23.693Z,43.57
2019-04-07T01:19:56.337Z,43.54
2019-04-07T01:22:28.918Z,43.57
2019-04-07T01:25:01.297Z,43.58
2019-04-07T01:27:33.733Z,43.62
2019-04-07T01:30:07.193Z,43.65
2019-04-07T01:32:39.750Z,43.68
2019-04-07T01:35:12.377Z,43.71
2019-04-07T01:37:44.855Z,43.71
2019-04-07T01:40:17.704Z,43.72
2019-04-07T01:43:18.521Z,43.66
2019-04-07T01:46:02.394Z,43.63
2019-04-07T01:48:59.290Z,43.62
2019-04-07T01:51:42.675Z,43.59
2019-04-07T01:54:22.979Z,43.56
2019-04-07T01:57:17.038Z,43.55
2019-04-07T02:00:03.549Z,43.55
2019-04-07T02:02:53.212Z,43.59
2019-04-07T02:05:59.212Z,43.59
2019-04-07T02:08:40.288Z,43.58
2019-04-07T02:11:22.117Z,43.63
2019-04-07T02:14:12.664Z,43.63
2019-04-07T02:16:50.013Z,43.63
2019-04-07T02:19:43.995Z,43.64
2019-04-07T02:22:50.882Z,43.63
2019-04-07T02:25:53.484Z,43.61
2019-04-07T02:28:57.194Z,43.61
2019-04-07T02:31:47.205Z,43.62
2019-04-07T02:34:30.904Z,43.61
2019-04-07T02:37:28.371Z,43.59
2019-04-07T02:40:19.139Z,43.57
2019-04-07T02:43:03.147Z,43.54
2019-04-07T02:45:57.905Z,43.58
2019-04-07T02:48:47.428Z,43.54
2019-04-07T02:51:42.107Z,43.54
2019-04-07T02:54:43.280Z,43.54
2019-04-07T02:57:28.117Z,43.52
2019-04-07T03:00:31.674Z,43.52
2019-04-07T03:03:25.403Z,43.52
2019-04-07T03:06:26.219Z,43.50
2019-04-07T03:08:54.461Z,43.48
2019-04-07T03:11:57.796Z,43.47
2019-04-07T03:14:37.107Z,43.47
2019-04-07T03:17:28.089Z,43.45
2019-04-07T03:20:08.794Z,43.44
2019-04-07T03:23:09.275Z,43.42
2019-04-07T03:26:18.619Z,43.42
2019-04-07T03:29:12.540Z,43.42
2019-04-07T03:32:02.979Z,43.42
2019-04-07T03:34:52.116Z,43.41
2019-04-07T03:37:54.882Z,43.40
2019-04-07T03:40:46.406Z,43.39
2019-04-07T03:43:38.493Z,43.37
2019-04-07T03:46:35.266Z,43.37
2019-04-07T03:49:23.338Z,43.36
2019-04-07T03:52:19.255Z,43.39
2019-04-07T03:55:08.952Z,43.39
2019-04-07T03:58:06.198Z,43.35
2019-04-07T04:01:25.975Z,43.37
2019-04-07T04:04:05.774Z,43.35
2019-04-07T04:06:56.769Z,43.38
2019-04-07T04:09:41.204Z,43.38
2019-04-07T04:12:32.072Z,43.39
2019-04-07T04:15:12.042Z,43.38
2019-04-07T04:17:45.685Z,43.35
2019-04-07T04:20:18.701Z,43.30
2019-04-07T04:22:52.728Z,43.24
2019-04-07T04:25:25.297Z,43.22
2019-04-07T04:27:59.131Z,43.17
2019-04-07T04:30:32.063Z,43.15
2019-04-07T04:33:04.590Z,43.12
2019-04-07T04:35:37.531Z,43.13
2019-04-07T04:38:10.281Z,43.09
2019-04-07T04:40:43.800Z,43.05
2019-04-07T04:43:17.848Z,43.01
2019-04-07T04:45:50.817Z,42.92
2019-04-07T04:48:23.739Z,42.77
2019-04-07T04:50:56.423Z,42.60
2019-04-07T04:53:29.143Z,42.41
2019-04-07T04:56:03.957Z,42.18
2019-04-07T04:58:36.495Z,41.94
2019-04-07T05:01:09.634Z,41.74
2019-04-07T05:03:42.832Z,41.57
2019-04-07T05:06:15.444Z,41.41
2019-04-07T05:08:48.614Z,41.26
2019-04-07T05:11:21.247Z,41.16
2019-04-07T05:13:53.602Z,41.03
2019-04-07T05:16:26.513Z,40.87
2019-04-07T05:18:59.536Z,40.76
2019-04-07T05:21:32.545Z,40.63
2019-04-07T05:24:07.875Z,40.52
2019-04-07T05:26:41.916Z,40.38
2019-04-07T05:29:14.731Z,40.25
2019-04-07T05:31:47.451Z,40.15
2019-04-07T05:34:22.125Z,40.00
2019-04-07T05:36:54.507Z,39.88
2019-04-07T05:39:27.234Z,39.80
2019-04-07T05:42:00.261Z,39.72
2019-04-07T05:44:34.380Z,39.67
2019-04-07T05:47:09.169Z,39.60
2019-04-07T05:49:41.536Z,39.57
2019-04-07T05:52:14.748Z,39.54
2019-04-07T05:54:49.936Z,39.48
2019-04-07T05:57:22.864Z,39.45
2019-04-07T05:59:56.070Z,39.40
2019-04-07T06:02:31.242Z,39.35
2019-04-07T06:05:03.337Z,39.25
2019-04-07T06:07:37.122Z,39.23
2019-04-07T06:10:10.875Z,39.15
2019-04-07T06:12:46.968Z,39.10
2019-04-07T06:15:22.039Z,39.08
2019-04-07T06:17:55.493Z,39.04
2019-04-07T06:20:28.236Z,39.06
2019-04-07T06:23:02.009Z,39.03
2019-04-07T06:25:38.723Z,38.96
2019-04-07T06:28:08.820Z,38.94
2019-04-07T06:30:41.334Z,38.91
2019-04-07T06:33:14.007Z,38.86
2019-04-07T06:35:47.425Z,38.74
2019-04-07T06:38:30.293Z,38.60
2019-04-07T06:40:57.791Z,38.36
2019-04-07T06:43:30.273Z,38.37
2019-04-07T06:46:30.625Z,38.34
2019-04-07T06:49:11.286Z,38.38
2019-04-07T06:52:04.637Z,38.47
2019-04-07T06:54:55.997Z,38.39
2019-04-07T06:57:43.866Z,38.35
2019-04-07T07:00:38.656Z,38.35
2019-04-07T07:03:38.119Z,38.23
2019-04-07T07:06:34.133Z,38.10
2019-04-07T07:09:20.447Z,37.98
2019-04-07T07:12:24.764Z,37.76
2019-04-07T07:15:09.168Z,37.66
2019-04-07T07:17:48.601Z,37.58
2019-04-07T07:20:43.538Z,37.33
2019-04-07T07:23:23.256Z,37.44
2019-04-07T07:25:56.539Z,37.35
2019-04-07T07:28:29.146Z,37.35
2019-04-07T07:31:02.221Z,37.25
2019-04-07T07:33:38.966Z,37.36
2019-04-07T07:36:09.667Z,37.38
2019-04-07T07:38:54.496Z,37.37
2019-04-07T07:41:19.220Z,37.48
2019-04-07T07:43:51.420Z,36.86
2019-04-07T07:46:24.245Z,37.07
2019-04-07T07:49:00.788Z,37.21
2019-04-07T07:51:31.875Z,37.36
2019-04-07T07:54:07.153Z,37.30
2019-04-07T07:56:43.165Z,36.96
2019-04-07T07:59:13.981Z,37.01
2019-04-07T08:01:50.210Z,36.97
2019-04-07T08:04:24.977Z,37.05
2019-04-07T08:06:56.917Z,37.14
2019-04-07T08:09:29.525Z,37.12
2019-04-07T08:12:03.481Z,37.12
2019-04-07T08:14:37.135Z,36.86
2019-04-07T08:17:10.641Z,36.91
2019-04-07T08:19:45.144Z,36.76
2019-04-07T08:22:27.641Z,36.88
2019-04-07T08:24:53.490Z,36.66
2019-04-07T08:27:29.973Z,36.90
2019-04-07T08:30:01.646Z,36.98
2019-04-07T08:32:34.442Z,36.82
2019-04-07T08:35:07.907Z,36.72
2019-04-07T08:37:40.564Z,36.79
2019-04-07T08:40:13.184Z,36.82
2019-04-07T08:42:48.354Z,36.82
2019-04-07T08:45:21.105Z,36.74
2019-04-07T08:47:53.729Z,36.68
2019-04-07T08:50:28.532Z,36.70
2019-04-07T08:53:00.759Z,36.48
2019-04-07T08:55:34.504Z,36.58
2019-04-07T08:58:06.986Z,36.61
2019-04-07T09:00:42.661Z,36.56
2019-04-07T09:03:16.381Z,36.59
2019-04-07T09:05:50.305Z,36.56
2019-04-07T09:08:22.819Z,36.56
2019-04-07T09:11:06.870Z,36.43
2019-04-07T09:13:39.565Z,36.32
2019-04-07T09:16:36.939Z,36.31
2019-04-07T09:19:25.021Z,36.43
2019-04-07T09:22:15.425Z,36.49
2019-04-07T09:25:09.149Z,36.46
2019-04-07T09:28:03.599Z,36.21
2019-04-07T09:30:54.739Z,36.28
2019-04-07T09:33:37.763Z,36.21
2019-04-07T09:36:32.203Z,36.03
2019-04-07T09:39:25.646Z,35.82
2019-04-07T09:42:13.706Z,35.94
2019-04-07T09:45:01.996Z,35.89
2019-04-07T09:47:57.561Z,35.57
2019-04-07T09:50:39.724Z,35.68
2019-04-07T09:53:38.214Z,35.76
2019-04-07T09:56:31.151Z,35.53
2019-04-07T09:59:20.271Z,35.52
2019-04-07T10:02:20.804Z,35.24
2019-04-07T10:05:15.239Z,35.45
2019-04-07T10:08:12.511Z,35.15
2019-04-07T10:11:17.094Z,35.33
2019-04-07T10:14:08.044Z,35.46
2019-04-07T10:17:17.748Z,35.52
2019-04-07T10:20:21.818Z,35.34
2019-04-07T10:23:09.433Z,35.36
2019-04-07T10:26:07.323Z,35.22
2019-04-07T10:28:50.740Z,35.19
2019-04-07T10:31:30.569Z,35.07
2019-04-07T10:34:28.752Z,35.14
2019-04-07T10:37:25.678Z,35.11
2019-04-07T10:40:22.134Z,35.16
2019-04-07T10:43:18.469Z,35.15
2019-04-07T10:46:12.497Z,35.19
2019-04-07T10:48:56.239Z,35.21
2019-04-07T10:51:47.696Z,35.03
2019-04-07T10:54:48.362Z,34.86
2019-04-07T10:57:43.769Z,34.92
2019-04-07T11:00:49.500Z,34.96
2019-04-07T11:03:49.769Z,35.04
2019-04-07T11:06:50.281Z,35.09
2019-04-07T11:09:45.072Z,35.01
2019-04-07T11:12:32.879Z,35.04
2019-04-07T11:15:43.212Z,35.04
2019-04-07T11:18:38.247Z,34.86
2019-04-07T11:21:30.311Z,34.95
2019-04-07T11:24:18.783Z,35.02
2019-04-07T11:27:16.707Z,35.03
2019-04-07T11:29:58.453Z,35.04
2019-04-07T11:32:38.717Z,34.99
2019-04-07T11:35:22.215Z,34.92
2019-04-07T11:38:13.642Z,34.91
2019-04-07T11:40:54.467Z,34.90
2019-04-07T11:43:48.588Z,34.97
2019-04-07T11:46:32.986Z,34.94
2019-04-07T11:49:14.287Z,34.97
2019-04-07T11:52:01.683Z,35.02
2019-04-07T11:54:40.515Z,35.06
2019-04-07T11:57:22.569Z,35.01
2019-04-07T12:00:06.436Z,34.99
2019-04-07T12:03:00.836Z,34.98
2019-04-07T12:05:44.598Z,34.94
2019-04-07T12:08:36.212Z,34.89
2019-04-07T12:11:32.787Z,34.91
2019-04-07T12:14:24.451Z,34.90
2019-04-07T12:17:17.848Z,34.85
2019-04-07T12:20:15.167Z,34.96
2019-04-07T12:22:58.191Z,34.93
2019-04-07T12:25:49.950Z,34.87
2019-04-07T12:28:40.078Z,34.79
2019-04-07T12:31:34.755Z,34.82
2019-04-07T12:34:29.641Z,34.83
2019-04-07T12:37:18.645Z,34.74
2019-04-07T12:40:27.970Z,34.74
2019-04-07T12:43:22.971Z,34.77
2019-04-07T12:46:23.134Z,34.76
2019-04-07T12:49:34.390Z,34.77
2019-04-07T12:52:37.720Z,34.74
2019-04-07T12:55:49.631Z,34.65
2019-04-07T12:58:32.353Z,34.47
2019-04-07T13:01:16.273Z,34.38
2019-04-07T13:04:06.130Z,34.34
2019-04-07T13:07:03.498Z,34.33
2019-04-07T13:10:00.246Z,34.30
2019-04-07T13:12:55.661Z,34.23
2019-04-07T13:16:01.513Z,34.22
2019-04-07T13:18:50.950Z,34.15
2019-04-07T13:21:44.665Z,34.16
2019-04-07T13:24:31.053Z,34.14
2019-04-07T13:27:18.475Z,34.03
2019-04-07T13:30:00.916Z,33.92
2019-04-07T13:33:00.713Z,33.92
2019-04-07T13:35:38.903Z,33.94
2019-04-07T13:38:27.217Z,33.98
2019-04-07T13:41:38.774Z,33.90
2019-04-07T13:44:29.723Z,33.89
2019-04-07T13:47:23.715Z,33.87
2019-04-07T13:50:17.967Z,33.87
2019-04-07T13:53:14.744Z,33.89
2019-04-07T13:56:02.852Z,33.86
2019-04-07T13:58:58.266Z,33.83
2019-04-07T14:01:42.223Z,33.80
2019-04-07T14:04:37.084Z,33.80
2019-04-07T14:07:31.702Z,33.78
2019-04-07T14:10:41.728Z,33.67
2019-04-07T14:13:45.025Z,33.62
2019-04-07T14:16:28.749Z,33.62
2019-04-07T14:19:13.460Z,33.60
2019-04-07T14:21:54.553Z,33.62
2019-04-07T14:24:56.719Z,33.60
2019-04-07T14:27:57.905Z,33.54
2019-04-07T14:30:40.916Z,33.57
2019-04-07T14:33:25.604Z,33.57
2019-04-07T14:36:17.680Z,33.54
2019-04-07T14:39:09.622Z,33.54
2019-04-07T14:41:49.860Z,33.52
2019-04-07T14:44:33.665Z,33.48
2019-04-07T14:47:18.658Z,33.46
2019-04-07T14:50:06.857Z,33.42
2019-04-07T14:53:01.952Z,33.43
2019-04-07T14:56:02.235Z,33.46
2019-04-07T14:59:04.338Z,33.47
2019-04-07T15:01:50.199Z,33.44
2019-04-07T15:04:24.780Z,33.46
2019-04-07T15:07:12.375Z,33.47
2019-04-07T15:09:52.415Z,33.48
2019-04-07T15:12:31.353Z,33.54
2019-04-07T15:15:08.414Z,33.52
2019-04-07T15:17:38.268Z,33.52
2019-04-07T15:20:12.827Z,33.49
2019-04-07T15:22:48.186Z,33.49
2019-04-07T15:25:21.546Z,33.41
2019-04-07T15:27:56.401Z,33.43
2019-04-07T15:30:28.277Z,33.41
2019-04-07T15:33:02.662Z,33.43
2019-04-07T15:35:35.290Z,33.42
2019-04-07T15:38:08.749Z,33.45
2019-04-07T15:40:41.564Z,33.42
2019-04-07T15:43:14.772Z,33.50
2019-04-07T15:45:48.607Z,33.55
2019-04-07T15:48:24.491Z,33.61
2019-04-07T15:51:00.805Z,33.66
2019-04-07T15:53:32.001Z,33.72
2019-04-07T15:56:06.588Z,33.76
2019-04-07T15:58:42.038Z,33.80
2019-04-07T16:01:15.019Z,33.85
2019-04-07T16:03:51.299Z,33.91
2019-04-07T16:06:22.022Z,33.93
2019-04-07T16:08:57.304Z,33.98
2019-04-07T16:11:30.487Z,34.05
2019-04-07T16:14:08.624Z,34.10
2019-04-07T16:16:39.352Z,34.14
2019-04-07T16:19:17.762Z,34.16
2019-04-07T16:21:51.861Z,34.18
2019-04-07T16:24:31.138Z,34.21
2019-04-07T16:27:05.179Z,34.22
2019-04-07T16:29:36.857Z,34.24
2019-04-07T16:32:09.372Z,34.26
2019-04-07T16:34:42.836Z,34.28
2019-04-07T16:37:15.956Z,34.32
2019-04-07T16:39:48.411Z,34.36
2019-04-07T16:42:20.874Z,34.40
2019-04-07T16:44:53.869Z,34.44
2019-04-07T16:47:32.750Z,34.47
2019-04-07T16:50:06.295Z,34.49
2019-04-07T16:52:39.636Z,34.52
2019-04-07T16:55:41.630Z,34.56
2019-04-07T16:58:14.516Z,34.59
2019-04-07T17:00:47.548Z,34.60
2019-04-07T17:03:20.508Z,34.66
2019-04-07T17:05:57.365Z,34.67
2019-04-07T17:08:28.729Z,34.70
2019-04-07T17:11:07.023Z,34.69
2019-04-07T17:13:41.066Z,34.72
2019-04-07T17:16:12.254Z,34.72
2019-04-07T17:18:48.600Z,34.75
2019-04-07T17:21:23.020Z,34.79
2019-04-07T17:23:56.677Z,34.81
2019-04-07T17:26:29.606Z,34.84
2019-04-07T17:29:03.208Z,34.85
2019-04-07T17:31:35.804Z,34.86
2019-04-07T17:34:10.864Z,34.89
2019-04-07T17:36:42.956Z,34.89
2019-04-07T17:39:40.546Z,34.92
2019-04-07T17:42:14.426Z,34.93
2019-04-07T17:45:04.202Z,34.96
2019-04-07T17:47:55.955Z,35.01
2019-04-07T17:50:56.447Z,35.06
2019-04-07T17:53:53.946Z,35.09
2019-04-07T17:56:35.771Z,35.14
2019-04-07T17:59:30.331Z,35.17
2019-04-07T18:02:14.523Z,35.18
2019-04-07T18:05:08.813Z,35.19
2019-04-07T18:08:00.532Z,35.19
2019-04-07T18:10:43.340Z,35.19
2019-04-07T18:13:43.826Z,35.21
2019-04-07T18:16:15.396Z,35.19
2019-04-07T18:19:09.776Z,35.23
2019-04-07T18:22:04.084Z,35.22
2019-04-07T18:24:46.337Z,35.27
2019-04-07T18:27:29.501Z,35.34
2019-04-07T18:30:14.756Z,35.35
2019-04-07T18:32:58.678Z,35.36
2019-04-07T18:35:51.056Z,35.39
2019-04-07T18:38:47.510Z,35.44
2019-04-07T18:41:53.163Z,35.46
2019-04-07T18:44:35.241Z,35.49
2019-04-07T18:47:43.315Z,35.54
2019-04-07T18:50:50.050Z,35.57
2019-04-07T18:53:37.440Z,35.63
2019-04-07T18:56:27.616Z,35.69
2019-04-07T18:59:19.201Z,35.72
2019-04-07T19:02:14.065Z,35.75
2019-04-07T19:05:07.090Z,35.81
2019-04-07T19:08:04.020Z,35.83
2019-04-07T19:11:10.397Z,35.88
2019-04-07T19:14:20.951Z,35.89
2019-04-07T19:16:58.709Z,35.91
2019-04-07T19:19:59.484Z,35.95
2019-04-07T19:22:54.882Z,35.98
2019-04-07T19:25:47.799Z,36.03
2019-04-07T19:28:49.799Z,36.08
2019-04-07T19:31:42.265Z,36.13
2019-04-07T19:34:31.789Z,36.22
2019-04-07T19:37:17.128Z,36.26
2019-04-07T19:40:02.687Z,36.34
2019-04-07T19:42:59.703Z,36.41
2019-04-07T19:46:00.631Z,36.45
2019-04-07T19:48:59.002Z,36.50
2019-04-07T19:51:50.815Z,36.55
2019-04-07T19:54:48.578Z,36.61
2019-04-07T19:57:34.001Z,36.65
2019-04-07T20:00:43.713Z,36.68
2019-04-07T20:03:44.780Z,36.71
2019-04-07T20:06:38.468Z,36.76
2019-04-07T20:09:39.388Z,36.78
2019-04-07T20:12:42.535Z,36.81
2019-04-07T20:15:36.503Z,36.88
2019-04-07T20:18:27.888Z,36.93
2019-04-07T20:21:35.054Z,36.98
2019-04-07T20:24:22.628Z,37.02
2019-04-07T20:27:24.863Z,37.10
2019-04-07T20:30:06.918Z,37.14
2019-04-07T20:33:04.217Z,37.24
2019-04-07T20:35:46.789Z,37.32
2019-04-07T20:38:37.918Z,37.37
2019-04-07T20:41:19.514Z,37.46
2019-04-07T20:44:19.874Z,37.51
2019-04-07T20:47:10.476Z,37.55
2019-04-07T20:50:05.448Z,37.62
2019-04-07T20:53:21.466Z,37.64
2019-04-07T20:56:03.807Z,37.69
2019-04-07T20:59:09.927Z,37.78
2019-04-07T21:02:17.108Z,37.83
2019-04-07T21:05:14.619Z,37.91
2019-04-07T21:08:14.518Z,37.98
2019-04-07T21:10:56.660Z,38.04
2019-04-07T21:13:47.140Z,38.11
2019-04-07T21:16:49.910Z,38.15
2019-04-07T21:19:47.412Z,38.22
2019-04-07T21:22:45.209Z,38.32
2019-04-07T21:25:45.503Z,38.41
2019-04-07T21:28:41.274Z,38.47
2019-04-07T21:31:20.558Z,38.58
2019-04-07T21:34:18.912Z,38.63
2019-04-07T21:37:25.115Z,38.67
2019-04-07T21:40:10.281Z,38.71
2019-04-07T21:43:11.789Z,38.76
2019-04-07T21:46:06.754Z,38.80
2019-04-07T21:49:05.632Z,38.89
2019-04-07T21:52:06.675Z,38.94
2019-04-07T21:55:10.119Z,38.96
2019-04-07T21:57:59.830Z,38.96
2019-04-07T22:00:55.066Z,38.99
2019-04-07T22:03:39.757Z,39.03
2019-04-07T22:06:42.855Z,39.03
2019-04-07T22:09:49.436Z,39.07
2019-04-07T22:12:25.696Z,39.13
2019-04-07T22:14:55.733Z,39.24
2019-04-07T22:17:32.609Z,39.27
2019-04-07T22:20:03.228Z,39.32
2019-04-07T22:22:35.696Z,39.35
2019-04-07T22:25:10.973Z,39.37
2019-04-07T22:27:44.146Z,39.43
2019-04-07T22:30:17.249Z,39.49
2019-04-07T22:32:51.306Z,39.53
2019-04-07T22:35:24.632Z,39.58
2019-04-07T22:37:57.496Z,39.67
2019-04-07T22:40:34.888Z,39.68
2019-04-07T22:43:07.113Z,39.68
2019-04-07T22:45:39.754Z,39.74
2019-04-07T22:48:12.181Z,39.77
2019-04-07T22:50:45.411Z,39.78
2019-04-07T22:53:22.379Z,39.82
2019-04-07T22:55:52.716Z,39.85
2019-04-07T22:58:25.158Z,39.90
2019-04-07T23:00:58.514Z,39.96
2019-04-07T23:03:31.347Z,40.02
2019-04-07T23:06:05.139Z,40.08
2019-04-07T23:08:37.696Z,40.16
2019-04-07T23:11:11.985Z,40.18
2019-04-07T23:13:45.173Z,40.22
2019-04-07T23:16:18.844Z,40.25
2019-04-07T23:18:54.150Z,40.27
2019-04-07T23:21:27.826Z,40.28
2019-04-07T23:24:01.255Z,40.31
2019-04-07T23:26:34.134Z,40.32
2019-04-07T23:29:08.011Z,40.36
2019-04-07T23:31:40.704Z,40.43
2019-04-07T23:34:13.086Z,40.44
2019-04-07T23:36:45.767Z,40.46
2019-04-07T23:39:18.293Z,40.47
2019-04-07T23:41:51.259Z,40.49
2019-04-07T23:44:23.682Z,40.52
2019-04-07T23:46:57.182Z,40.56
2019-04-07T23:49:30.103Z,40.61
2019-04-07T23:52:02.768Z,40.64
2019-04-07T23:54:35.286Z,40.69
2019-04-07T23:57:08.593Z,40.75
2019-04-07T23:59:41.109Z,40.81
